Flight Track Log - Related Links

Times and Time Zones

All times are in EDT time to prevent confusion due to time zone crossing. See the SWA143 flight status page for this flight to view local times or setup timezone preferences in your user account.

Time Position Orientation Groundspeed Altitude Reporting Facility
EDT Latitude Longitude Course Direction KTS MPH feet Rate Location/Type
Thu 05:45:15 PM 33.4333 -112.0333 253° West 188 216 2,000  Level Phoenix TRACON
Thu 05:46:10 PM 33.4167 -112.1000 253° West 218 251 3,700 2,132 Climbing Phoenix TRACON
Thu 05:47:16 PM 33.4000 -112.1667 253° West 226 260 6,300 2,047 Climbing Phoenix TRACON
Thu 05:47:35 PM 33.3939 -112.1825 245° Southwest 227 261 6,600 1,650 Climbing Albuquerque Center
Thu 05:48:36 PM 33.3942 -112.2892 270° West 291 335 8,500 1,902 Climbing Albuquerque Center
Thu 05:49:38 PM 33.4044 -112.3878 277° West 300 345 10,500 1,790 Climbing Albuquerque Center
Thu 05:50:40 PM 33.4178 -112.5033 278° West 348 400 12,200 1,887 Climbing Albuquerque Center
Thu 05:51:42 PM 33.4317 -112.6261 278° West 359 413 14,400 2,049 Climbing Albuquerque Center
Thu 05:52:43 PM 33.4450 -112.7483 277° West 367 422 16,400 2,244 Climbing Albuquerque Center
Thu 05:53:45 PM 33.4619 -112.8744 279° West 379 436 19,000 2,419 Climbing Albuquerque Center
Thu 05:54:47 PM 33.4869 -112.9986 284° West 384 442 21,400 1,951 Climbing Albuquerque Center
Thu 05:55:48 PM 33.5108 -113.1219 283° West 383 441 23,000 1,805 Climbing Albuquerque Center
Thu 05:56:50 PM 33.5403 -113.2769 283° West 389 448 25,100 1,597 Climbing Albuquerque Center
Thu 05:57:52 PM 33.5647 -113.4089 283° West 397 457 26,300 1,355 Climbing Albuquerque Center
Thu 05:58:54 PM 33.5906 -113.5436 283° West 406 467 27,900 829 Climbing Albuquerque Center
Thu 05:59:55 PM 33.6164 -113.6819 283° West 414 476 28,000 49 Climbing Albuquerque Center
Thu 06:00:57 PM 33.6372 -113.8167 281° West 414 476 28,000  Level Albuquerque Center
Thu 06:01:59 PM 33.6492 -113.9536 276° West 414 476 28,000  Level Albuquerque Center
Thu 06:03:00 PM 33.6625 -114.0889 277° West 411 473 28,000  Level Albuquerque Center
Thu 06:04:02 PM 33.6778 -114.2483 277° West 409 471 28,000  Level Albuquerque Center
Thu 06:05:04 PM 33.6914 -114.3839 277° West 409 471 28,000  Level Albuquerque Center
Thu 06:05:22 PM 33.6961 -114.4264 278° West 409 471 28,000  Level Los Angeles Center
Thu 06:06:24 PM 33.7100 -114.5631 277° West 413 475 28,000  Level Los Angeles Center
Thu 06:07:26 PM 33.7236 -114.6994 277° West 413 475 28,000  Level Los Angeles Center
Thu 06:08:28 PM 33.7339 -114.8358 275° West 411 473 28,000  Level Los Angeles Center
Thu 06:09:30 PM 33.7503 -115.0008 277° West 415 478 28,000  Level Los Angeles Center
Thu 06:10:32 PM 33.7614 -115.1389 276° West 417 480 28,000  Level Los Angeles Center
Thu 06:11:34 PM 33.7747 -115.2761 277° West 416 479 28,000  Level Los Angeles Center
Thu 06:12:36 PM 33.7864 -115.4142 276° West 417 480 28,000  Level Los Angeles Center
Thu 06:13:38 PM 33.7986 -115.5528 276° West 418 481 28,000  Level Los Angeles Center
Thu 06:14:40 PM 33.8122 -115.7186 276° West 418 481 28,000  Level Los Angeles Center
Thu 06:15:43 PM 33.8250 -115.8578 276° West 419 482 28,000  Level Los Angeles Center
Thu 06:16:45 PM 33.8361 -115.9975 276° West 423 487 28,000  Level Los Angeles Center
Thu 06:17:47 PM 33.8469 -116.1378 275° West 424 488 28,000 -581 Level Los Angeles Center
Thu 06:18:49 PM 33.8575 -116.2725 275° West 407 468 26,800 -2,371 Descending Los Angeles Center
Thu 06:19:51 PM 33.8686 -116.4067 276° West 404 465 23,100 -3,387 Descending Los Angeles Center
Thu 06:20:53 PM 33.8756 -116.5436 274° West 410 472 19,800 -3,145 Descending Los Angeles Center
Thu 06:21:55 PM 33.8836 -116.7047 273° West 405 466 16,600 -2,661 Descending Los Angeles Center
Thu 06:22:57 PM 33.8892 -116.8336 273° West 394 453 14,300 -1,872 Descending Los Angeles Center
Thu 06:24:00 PM 33.8950 -116.9522 273° West 366 421 12,700 -1,584 Descending Los Angeles Center
Thu 06:25:02 PM 33.9119 -117.0642 280° West 350 403 11,000 -2,081 Descending Los Angeles Center
Thu 06:26:04 PM 33.9650 -117.1722 301° West 317 365 8,400 -2,136 Descending Los Angeles Center
Thu 06:27:00 PM 34.0000 -117.2500 299° West 300 345 6,800 -1,721 Descending Southern California TRACON
Thu 06:28:06 PM 34.0500 -117.3500 301° West 279 321 4,900 -1,488 Descending Southern California TRACON
Thu 06:29:01 PM 34.0500 -117.4167 270° West 223 257 3,800 -1,250 Descending Southern California TRACON
Thu 06:30:06 PM 34.0500 -117.5000 270° West 185 213 2,400 -1,000 Descending Southern California TRACON
Thu 06:31:01 PM 34.0500 -117.5333 270° West 135 155 1,800 -655 Descending Southern California TRACON
Thu 06:34:00 PM 34.0500 -117.6000 287° West  Level FlightAware Approximate

Login

Don't have an account? Register now (free) for customized features, flight alerts, and more!